Time;durP1;ratioP1;P1;durP2;ratioP2;P2;SDS_P1;SDS_P2;PMS_P1;PMS_P2;Temp;Humidity;BMP_temperature;BMP_pressure;BME280_temperature;BME280_humidity;BME280_pressure;Samples;Min_cycle;Max_cycle;Signal;HPM_P1;HPM_P2
2022/03/31 00:00:29;;;;;;;9.65;3.60;;;21.20;99.90;;;;;;5031724;28;20369;-79
2022/03/31 00:02:57;;;;;;;8.88;3.38;;;22.00;99.90;;;;;;5030619;28;20413;-78
2022/03/31 00:05:24;;;;;;;7.40;3.45;;;22.20;99.90;;;;;;5030491;28;20465;-80
2022/03/31 00:07:56;;;;;;;9.18;3.53;;;22.40;99.90;;;;;;5031961;28;20392;-79
2022/03/31 00:10:29;;;;;;;18.23;3.60;;;22.50;99.90;;;;;;5032282;28;20374;-80
2022/03/31 00:12:57;;;;;;;12.32;3.60;;;22.50;99.60;;;;;;5032936;28;20427;-81
2022/03/31 00:15:26;;;;;;;10.65;3.50;;;22.60;99.90;;;;;;5034900;28;20374;-82
2022/03/31 00:17:55;;;;;;;9.57;3.40;;;22.50;99.90;;;;;;5035359;28;20758;-89
2022/03/31 00:20:22;;;;;;;7.25;3.38;;;22.50;99.90;;;;;;5050904;28;20356;-86
2022/03/31 00:22:49;;;;;;;9.18;3.40;;;22.50;99.90;;;;;;5052358;28;20399;-88
2022/03/31 00:25:17;;;;;;;11.82;3.50;;;22.50;99.90;;;;;;5053243;28;20432;-87
2022/03/31 00:27:44;;;;;;;11.40;3.47;;;22.40;99.90;;;;;;5047254;28;20441;-80
2022/03/31 00:30:13;;;;;;;9.13;3.30;;;22.30;99.90;;;;;;5047572;28;20445;-82
2022/03/31 00:32:41;;;;;;;10.43;3.70;;;22.30;99.90;;;;;;5049569;28;20370;-91
2022/03/31 00:35:10;;;;;;;19.83;3.97;;;22.10;99.90;;;;;;5050463;28;20381;-85
2022/03/31 00:37:37;;;;;;;12.70;3.83;;;22.00;99.90;;;;;;5050937;28;20420;-88
2022/03/31 00:40:05;;;;;;;12.25;3.97;;;22.00;99.90;;;;;;5048109;28;20440;-88
2022/03/31 00:42:38;;;;;;;13.07;3.80;;;21.80;99.90;;;;;;5046982;28;20377;-81
2022/03/31 00:45:12;;;;;;;10.13;4.00;;;21.80;99.90;;;;;;5041426;28;20392;-93
2022/03/31 00:47:39;;;;;;;10.90;3.90;;;21.80;99.90;;;;;;5036426;28;20791;-89
2022/03/31 00:50:06;;;;;;;12.77;4.00;;;21.70;99.90;;;;;;5032115;28;20376;-96
2022/03/31 00:52:33;;;;;;;13.32;4.10;;;21.60;99.90;;;;;;5014073;28;20452;-80
2022/03/31 00:55:01;;;;;;;10.05;3.63;;;21.50;99.90;;;;;;5031835;28;20424;-80
2022/03/31 00:57:29;;;;;;;7.47;3.35;;;21.60;99.90;;;;;;5031028;28;20489;-93
2022/03/31 00:59:57;;;;;;;9.83;3.60;;;21.60;99.90;;;;;;5032186;28;20384;-88
2022/03/31 01:02:30;;;;;;;11.48;3.80;;;21.60;99.90;;;;;;5033238;28;20441;-80
2022/03/31 01:05:02;;;;;;;10.85;3.80;;;21.60;99.90;;;;;;5037524;28;20402;-82
2022/03/31 01:07:30;;;;;;;10.63;3.83;;;21.60;99.90;;;;;;5039898;28;20738;-88
2022/03/31 01:10:00;;;;;;;10.57;3.40;;;21.80;99.90;;;;;;5035637;28;20382;-90
2022/03/31 01:12:28;;;;;;;14.18;3.80;;;21.80;99.90;;;;;;5032920;28;20373;-81
2022/03/31 01:15:07;;;;;;;12.73;3.30;;;21.80;99.90;;;;;;5032961;28;20380;-87
2022/03/31 01:17:39;;;;;;;12.93;3.33;;;21.70;99.90;;;;;;5032233;28;20405;-89
2022/03/31 01:20:10;;;;;;;7.78;2.75;;;21.70;99.90;;;;;;5031054;28;20369;-83
2022/03/31 01:22:37;;;;;;;11.77;2.85;;;21.60;99.90;;;;;;5032305;28;20427;-85
2022/03/31 01:25:09;;;;;;;11.82;3.10;;;21.60;99.90;;;;;;5031487;28;21000;-81
2022/03/31 01:27:43;;;;;;;7.72;2.50;;;21.40;99.90;;;;;;5029832;28;20393;-84
2022/03/31 01:30:13;;;;;;;8.10;2.95;;;22.60;99.90;;;;;;5029914;28;20374;-85
2022/03/31 01:32:41;;;;;;;9.02;3.20;;;21.40;99.90;;;;;;5032572;28;20476;-84
2022/03/31 01:35:09;;;;;;;7.63;3.22;;;21.40;99.90;;;;;;5029894;28;20382;-80
2022/03/31 01:37:36;;;;;;;9.70;3.60;;;21.20;99.90;;;;;;5029626;28;20409;-82
2022/03/31 01:40:09;;;;;;;9.27;3.58;;;21.00;99.90;;;;;;5015541;28;20397;-91
2022/03/31 01:42:37;;;;;;;11.10;3.40;;;20.80;99.90;;;;;;5033657;28;20476;-80
2022/03/31 01:45:07;;;;;;;8.75;3.53;;;20.70;99.90;;;;;;5034720;28;20872;-81
2022/03/31 01:47:34;;;;;;;10.50;3.38;;;20.70;99.90;;;;;;5034973;28;20552;-85
2022/03/31 01:50:01;;;;;;;11.25;3.67;;;20.80;99.90;;;;;;5035962;28;20946;-78
2022/03/31 01:52:29;;;;;;;10.50;3.38;;;20.80;99.90;;;;;;5040413;28;20373;-91
2022/03/31 01:54:56;;;;;;;10.05;3.47;;;20.80;99.90;;;;;;5037254;28;20396;-79
2022/03/31 01:57:23;;;;;;;9.75;3.50;;;20.80;99.90;;;;;;5034793;28;20405;-79
2022/03/31 01:59:51;;;;;;;10.33;3.70;;;19.90;99.90;;;;;;5034411;28;20452;-79
2022/03/31 02:02:18;;;;;;;15.50;3.80;;;20.60;99.90;;;;;;5035432;28;20388;-79
2022/03/31 02:04:45;;;;;;;8.82;3.05;;;20.50;99.90;;;;;;5036408;28;20388;-86
2022/03/31 02:07:12;;;;;;;7.90;2.90;;;20.30;99.90;;;;;;5038836;28;20745;-78
2022/03/31 02:09:39;;;;;;;6.72;2.70;;;20.00;99.90;;;;;;5037898;28;20365;-79
2022/03/31 02:12:07;;;;;;;6.75;3.00;;;19.70;99.90;;;;;;5037927;28;20381;-80
2022/03/31 02:14:37;;;;;;;10.95;3.85;;;19.50;99.90;;;;;;5036821;28;20437;-88
2022/03/31 02:17:09;;;;;;;10.88;4.35;;;19.40;99.90;;;;;;5016271;28;20554;-78
2022/03/31 02:19:37;;;;;;;12.98;4.90;;;19.20;99.90;;;;;;5033295;28;20745;-92
2022/03/31 02:22:07;;;;;;;11.85;4.68;;;18.90;99.90;;;;;;5032529;28;20951;-80
2022/03/31 02:24:35;;;;;;;14.50;5.50;;;18.80;99.90;;;;;;5032179;28;20808;-80
2022/03/31 02:27:03;;;;;;;15.35;5.22;;;18.70;99.90;;;;;;5032303;28;20387;-79
2022/03/31 02:29:30;;;;;;;14.60;4.88;;;18.60;99.90;;;;;;5032178;28;20507;-87
2022/03/31 02:31:58;;;;;;;11.25;4.53;;;18.60;99.90;;;;;;5031784;28;20884;-80
2022/03/31 02:34:25;;;;;;;13.00;4.40;;;18.50;99.90;;;;;;5034331;28;20389;-88
2022/03/31 02:36:52;;;;;;;12.55;4.65;;;18.40;99.90;;;;;;5033261;28;20959;-77
2022/03/31 02:39:19;;;;;;;13.38;4.80;;;18.30;99.90;;;;;;5033275;28;20401;-78
2022/03/31 02:41:46;;;;;;;11.55;4.65;;;18.40;99.90;;;;;;5014361;28;20409;-81
2022/03/31 02:44:14;;;;;;;9.87;4.20;;;18.30;99.90;;;;;;5031667;28;20405;-79
2022/03/31 02:46:41;;;;;;;13.30;5.20;;;18.30;99.90;;;;;;5031799;28;20376;-79
2022/03/31 02:49:08;;;;;;;10.65;4.10;;;18.40;99.90;;;;;;5031518;28;20837;-79
2022/03/31 02:51:35;;;;;;;8.90;4.15;;;18.40;99.90;;;;;;5031922;28;20432;-81
2022/03/31 02:56:48;;;;;;;11.07;4.57;;;18.60;99.90;;;;;;5032308;28;20407;-85
2022/03/31 02:59:17;;;;;;;9.60;4.00;;;19.50;99.90;;;;;;5033572;28;20378;-80
2022/03/31 03:01:44;;;;;;;8.55;4.03;;;18.60;99.90;;;;;;5033823;28;20848;-86
2022/03/31 03:04:11;;;;;;;12.18;3.92;;;18.70;99.90;;;;;;5016671;28;20389;-87
2022/03/31 03:06:39;;;;;;;10.80;4.18;;;18.80;99.90;;;;;;5032917;28;20444;-80
2022/03/31 03:09:07;;;;;;;10.82;4.40;;;18.80;99.90;;;;;;5035631;28;20377;-81
2022/03/31 03:11:34;;;;;;;13.25;4.20;;;18.90;99.90;;;;;;5033859;28;20914;-81
2022/03/31 03:14:03;;;;;;;11.80;3.92;;;18.90;99.90;;;;;;5032555;28;20468;-81
2022/03/31 03:16:30;;;;;;;9.82;3.95;;;18.90;99.90;;;;;;5032525;28;20861;-85
2022/03/31 03:18:57;;;;;;;9.95;4.00;;;19.00;99.90;;;;;;5033394;28;20394;-83
2022/03/31 03:21:23;;;;;;;9.82;4.28;;;19.00;99.90;;;;;;5034295;28;20845;-87
2022/03/31 03:23:50;;;;;;;9.23;4.03;;;19.00;99.90;;;;;;5033497;28;20396;-82
2022/03/31 03:26:17;;;;;;;11.57;3.90;;;19.10;99.90;;;;;;5035058;28;20477;-80
2022/03/31 03:28:46;;;;;;;15.52;4.38;;;19.30;99.90;;;;;;5034843;28;20393;-81
2022/03/31 03:31:13;;;;;;;13.52;4.10;;;19.30;99.90;;;;;;5035144;28;20400;-80
2022/03/31 03:33:43;;;;;;;12.52;4.20;;;19.40;99.90;;;;;;5018748;28;20484;-81
2022/03/31 03:36:12;;;;;;;20.60;5.43;;;19.30;99.90;;;;;;5038357;28;20453;-83
2022/03/31 03:38:40;;;;;;;24.52;6.40;;;19.10;99.90;;;;;;5033048;28;20386;-78
2022/03/31 03:41:11;;;;;;;25.15;6.93;;;18.90;99.90;;;;;;5031758;28;20409;-89
2022/03/31 03:43:40;;;;;;;31.27;7.23;;;18.80;99.90;;;;;;5032273;28;20397;-81
2022/03/31 03:46:07;;;;;;;31.03;7.20;;;18.80;99.90;;;;;;5036750;28;20416;-87
2022/03/31 03:48:35;;;;;;;30.40;6.90;;;18.70;99.90;;;;;;5031907;28;20504;-91
2022/03/31 03:51:02;;;;;;;25.27;5.93;;;18.70;99.90;;;;;;5047199;28;20385;-89
2022/03/31 03:53:29;;;;;;;28.65;6.40;;;18.80;99.90;;;;;;5032482;28;20384;-85
2022/03/31 03:55:56;;;;;;;29.80;6.23;;;18.90;99.90;;;;;;5014739;28;20384;-91
2022/03/31 03:58:23;;;;;;;28.57;6.00;;;18.90;99.90;;;;;;5032637;28;20439;-84
2022/03/31 04:00:50;;;;;;;28.70;6.40;;;19.00;99.90;;;;;;5032192;28;20384;-93
2022/03/31 04:03:17;;;;;;;26.40;5.97;;;19.00;99.90;;;;;;5032079;28;20403;-87
2022/03/31 04:05:45;;;;;;;29.15;6.63;;;19.00;99.90;;;;;;5033519;28;20402;-80
2022/03/31 04:08:11;;;;;;;29.83;6.32;;;19.00;99.90;;;;;;5032102;28;20412;-80
2022/03/31 04:10:38;;;;;;;30.38;6.75;;;19.10;99.90;;;;;;5032666;28;20861;-80
2022/03/31 04:13:05;;;;;;;22.00;5.40;;;19.20;99.90;;;;;;5032891;28;20800;-94
2022/03/31 04:15:32;;;;;;;30.40;6.45;;;19.10;99.90;;;;;;5047871;28;20377;-85
2022/03/31 04:17:59;;;;;;;27.33;6.13;;;18.80;99.90;;;;;;5031031;28;20428;-80
2022/03/31 04:20:26;;;;;;;28.10;6.20;;;18.70;99.90;;;;;;5030588;28;20374;-90
2022/03/31 04:22:53;;;;;;;32.30;6.13;;;18.60;99.90;;;;;;5030762;28;20481;-90
2022/03/31 04:25:21;;;;;;;30.80;6.57;;;18.50;99.90;;;;;;5030447;28;20393;-93
2022/03/31 04:27:48;;;;;;;29.42;5.88;;;18.50;99.90;;;;;;5031000;28;20476;-87
2022/03/31 04:30:18;;;;;;;32.10;5.78;;;18.50;99.90;;;;;;5030843;28;20381;-85
2022/03/31 04:32:45;;;;;;;29.90;5.78;;;18.50;99.90;;;;;;5031945;28;20378;-84
2022/03/31 04:35:12;;;;;;;29.00;5.60;;;18.50;99.90;;;;;;5031838;28;20377;-80
2022/03/31 04:37:39;;;;;;;24.48;5.32;;;18.60;99.90;;;;;;5031471;28;20969;-85
2022/03/31 04:40:07;;;;;;;26.42;5.63;;;18.80;99.90;;;;;;5030554;28;20374;-88
2022/03/31 04:42:35;;;;;;;26.87;5.83;;;19.40;99.90;;;;;;5030947;28;20393;-82
2022/03/31 04:45:04;;;;;;;25.83;5.55;;;19.80;99.90;;;;;;5033723;28;20379;-91
2022/03/31 04:47:31;;;;;;;23.48;5.32;;;20.10;99.90;;;;;;5033330;28;20404;-94
2022/03/31 04:49:59;;;;;;;23.75;5.30;;;20.30;99.90;;;;;;5030965;28;20373;-93
2022/03/31 04:52:26;;;;;;;21.55;4.82;;;20.70;99.90;;;;;;5031471;28;20413;-79
2022/03/31 04:54:53;;;;;;;24.77;5.32;;;21.70;99.90;;;;;;5030652;28;20381;-80
2022/03/31 04:57:21;;;;;;;20.48;4.55;;;22.80;99.90;;;;;;5031956;28;20397;-81
2022/03/31 04:59:48;;;;;;;22.67;4.90;;;23.50;99.90;;;;;;5030411;28;20721;-82
2022/03/31 05:02:16;;;;;;;24.95;5.57;;;23.00;99.90;;;;;;5029827;28;20381;-85
2022/03/31 05:04:43;;;;;;;19.95;4.88;;;22.50;99.90;;;;;;5029553;28;20768;-80
2022/03/31 05:07:10;;;;;;;21.85;5.00;;;21.90;99.90;;;;;;5030197;28;20385;-82
2022/03/31 05:09:38;;;;;;;22.38;5.00;;;22.00;99.90;;;;;;5029466;28;20392;-82
2022/03/31 05:12:06;;;;;;;22.98;5.32;;;22.70;99.90;;;;;;5029086;28;20396;-83
2022/03/31 05:14:33;;;;;;;22.38;5.10;;;23.10;99.90;;;;;;5011412;28;20439;-83
2022/03/31 05:17:00;;;;;;;22.35;5.10;;;22.40;99.90;;;;;;5029066;28;20397;-82
2022/03/31 05:19:28;;;;;;;22.00;4.90;;;21.90;99.90;;;;;;5029354;28;20522;-88
2022/03/31 05:21:55;;;;;;;21.70;4.93;;;21.40;99.90;;;;;;5029286;28;20416;-89
2022/03/31 05:24:21;;;;;;;23.70;5.05;;;21.10;99.90;;;;;;5029602;28;20378;-88
2022/03/31 05:26:52;;;;;;;30.92;5.38;;;20.90;99.90;;;;;;5030336;28;20384;-88
2022/03/31 05:29:20;;;;;;;19.92;4.60;;;20.80;99.90;;;;;;5032257;28;20382;-81
2022/03/31 05:31:48;;;;;;;21.33;4.40;;;20.40;99.90;;;;;;5030994;28;20381;-85
2022/03/31 05:34:15;;;;;;;21.50;4.70;;;20.50;99.90;;;;;;5029396;28;20453;-85
2022/03/31 05:36:42;;;;;;;23.17;4.88;;;20.30;99.90;;;;;;5029702;28;20390;-79
2022/03/31 05:39:09;;;;;;;22.70;4.20;;;20.20;99.90;;;;;;5035563;28;20897;-78
2022/03/31 05:41:36;;;;;;;22.98;5.25;;;20.00;99.90;;;;;;5035809;28;20376;-80
2022/03/31 05:44:03;;;;;;;17.45;3.88;;;19.70;99.90;;;;;;5029591;28;20393;-79
2022/03/31 05:46:30;;;;;;;16.88;3.55;;;19.10;99.90;;;;;;5029171;28;20383;-87
2022/03/31 05:48:58;;;;;;;16.02;3.33;;;18.60;99.90;;;;;;5030519;28;20709;-89
2022/03/31 05:51:25;;;;;;;15.48;3.42;;;18.30;99.90;;;;;;4995901;28;20416;-85
2022/03/31 05:53:52;;;;;;;15.13;3.47;;;18.30;99.90;;;;;;5028799;28;20782;-91
2022/03/31 05:56:20;;;;;;;14.52;3.10;;;18.40;99.90;;;;;;5029014;28;20892;-87
2022/03/31 05:58:49;;;;;;;19.57;3.73;;;18.60;99.90;;;;;;5028861;28;20377;-91
2022/03/31 06:01:17;;;;;;;17.65;3.60;;;18.60;99.90;;;;;;5028532;28;20940;-81
2022/03/31 06:03:44;;;;;;;18.40;3.40;;;18.50;99.90;;;;;;5028773;28;20745;-86
2022/03/31 06:06:11;;;;;;;16.73;3.65;;;18.40;99.90;;;;;;5028265;28;20374;-85
2022/03/31 06:08:38;;;;;;;16.70;3.70;;;18.20;99.90;;;;;;5028537;28;20427;-79
2022/03/31 06:11:05;;;;;;;18.23;3.60;;;18.10;99.90;;;;;;5028694;28;20505;-85
2022/03/31 06:13:32;;;;;;;17.58;3.30;;;18.00;99.90;;;;;;5028782;28;20386;-90
2022/03/31 06:15:59;;;;;;;14.18;3.03;;;18.10;99.90;;;;;;5028983;28;20374;-89
2022/03/31 06:18:26;;;;;;;20.45;3.45;;;17.90;99.90;;;;;;5028325;28;20401;-85
2022/03/31 06:20:53;;;;;;;13.98;2.85;;;17.90;99.90;;;;;;5028951;28;20382;-85
2022/03/31 06:23:22;;;;;;;13.23;3.08;;;17.90;99.90;;;;;;5034057;28;20378;-82
2022/03/31 06:25:50;;;;;;;13.88;3.10;;;17.80;99.90;;;;;;5034555;28;20370;-90
2022/03/31 06:28:17;;;;;;;16.05;3.20;;;17.70;99.90;;;;;;5031932;28;20377;-86
2022/03/31 06:30:46;;;;;;;11.77;3.10;;;17.70;99.90;;;;;;5032255;28;20405;-79
2022/03/31 06:33:15;;;;;;;12.40;3.40;;;17.60;99.90;;;;;;5032375;28;20491;-88
2022/03/31 06:35:42;;;;;;;12.68;2.90;;;17.50;99.90;;;;;;5032241;28;20381;-79
2022/03/31 06:38:11;;;;;;;14.50;3.20;;;17.40;99.90;;;;;;5031621;28;20451;-80
2022/03/31 06:40:41;;;;;;;18.02;3.38;;;17.40;99.90;;;;;;5031817;28;20817;-87
2022/03/31 06:43:08;;;;;;;16.08;3.15;;;17.40;99.90;;;;;;5031343;28;20397;-82
2022/03/31 06:45:35;;;;;;;14.70;3.05;;;17.40;99.90;;;;;;5031319;28;20473;-77
2022/03/31 06:48:04;;;;;;;13.40;3.08;;;17.40;99.90;;;;;;5031658;28;20381;-85
2022/03/31 06:50:33;;;;;;;16.98;3.17;;;17.40;99.90;;;;;;5031210;28;20370;-75
2022/03/31 06:53:00;;;;;;;11.25;2.85;;;17.50;99.90;;;;;;5014298;28;20474;-78
2022/03/31 06:55:28;;;;;;;13.38;3.00;;;17.50;99.90;;;;;;5032064;28;20903;-81
2022/03/31 06:57:55;;;;;;;14.93;3.25;;;17.60;99.90;;;;;;5031375;28;20418;-88
2022/03/31 07:00:22;;;;;;;16.92;3.40;;;17.60;99.90;;;;;;5032084;28;20412;-88
2022/03/31 07:02:50;;;;;;;12.45;2.80;;;17.60;99.90;;;;;;5031642;28;20386;-78
2022/03/31 07:05:16;;;;;;;11.82;2.92;;;17.60;99.90;;;;;;5031558;28;20432;-89
2022/03/31 07:07:43;;;;;;;14.57;3.30;;;17.50;99.90;;;;;;5031655;28;20514;-84
2022/03/31 07:10:11;;;;;;;13.40;3.10;;;17.50;99.90;;;;;;5032183;28;20837;-85
2022/03/31 07:12:41;;;;;;;15.27;3.10;;;17.50;99.90;;;;;;5035406;28;20386;-87
2022/03/31 07:15:11;;;;;;;17.42;3.58;;;17.50;99.90;;;;;;5047310;28;20448;-82
2022/03/31 07:17:39;;;;;;;15.80;3.17;;;17.40;99.90;;;;;;5034967;28;20401;-87
2022/03/31 07:20:06;;;;;;;22.33;3.70;;;17.40;99.90;;;;;;5031177;28;20381;-81
2022/03/31 07:22:34;;;;;;;18.98;3.78;;;17.40;99.90;;;;;;5031633;28;20495;-88
2022/03/31 07:25:01;;;;;;;17.45;3.78;;;17.30;99.90;;;;;;5031218;28;20374;-79
2022/03/31 07:27:29;;;;;;;18.17;4.07;;;17.30;99.90;;;;;;5031439;28;20382;-84
2022/03/31 07:29:56;;;;;;;18.70;3.95;;;18.50;99.90;;;;;;5031696;28;20401;-84
2022/03/31 07:32:23;;;;;;;14.63;3.70;;;17.30;99.90;;;;;;5033570;28;20814;-84
2022/03/31 07:34:50;;;;;;;20.48;3.80;;;17.30;99.90;;;;;;5042933;28;20469;-83
2022/03/31 07:37:17;;;;;;;18.13;3.85;;;17.30;99.90;;;;;;5030346;28;20476;-89
2022/03/31 07:39:47;;;;;;;20.35;4.03;;;17.30;99.90;;;;;;5031377;28;20394;-84
2022/03/31 07:42:15;;;;;;;17.33;3.83;;;17.30;99.90;;;;;;5031155;28;20431;-84
2022/03/31 07:44:42;;;;;;;20.37;4.07;;;17.20;99.90;;;;;;5031323;28;20397;-89
2022/03/31 07:47:10;;;;;;;20.40;3.90;;;17.30;99.90;;;;;;5031449;28;20399;-85
2022/03/31 07:49:37;;;;;;;19.38;3.88;;;17.30;99.90;;;;;;5031308;28;20783;-78
2022/03/31 07:52:04;;;;;;;18.15;4.03;;;17.30;99.90;;;;;;5031100;28;20373;-87
2022/03/31 07:54:31;;;;;;;19.10;4.32;;;17.30;99.90;;;;;;5031092;28;20393;-80
2022/03/31 07:56:58;;;;;;;18.25;3.72;;;17.30;99.90;;;;;;5032157;28;20405;-83
2022/03/31 07:59:32;;;;;;;22.20;3.63;;;17.30;99.90;;;;;;5031280;28;20366;-87
2022/03/31 08:01:59;;;;;;;15.13;3.70;;;17.20;99.90;;;;;;5030475;28;20426;-88
2022/03/31 08:04:29;;;;;;;21.85;3.88;;;17.20;99.90;;;;;;5029875;28;20802;-87
2022/03/31 08:06:57;;;;;;;17.90;3.80;;;17.00;99.90;;;;;;5030304;28;20465;-87
2022/03/31 08:09:24;;;;;;;19.88;3.80;;;16.90;99.90;;;;;;5030560;28;20413;-87
2022/03/31 08:11:54;;;;;;;16.15;3.60;;;16.80;99.90;;;;;;5030717;28;20374;-82
2022/03/31 08:14:21;;;;;;;16.48;3.70;;;16.80;99.90;;;;;;5030614;28;20742;-86
2022/03/31 08:16:50;;;;;;;17.55;3.75;;;16.80;99.90;;;;;;5030346;28;20472;-84
2022/03/31 08:19:20;;;;;;;17.20;3.42;;;16.80;99.90;;;;;;5031908;28;20385;-87
2022/03/31 08:21:49;;;;;;;17.70;3.42;;;16.70;99.90;;;;;;5030389;28;20435;-89
2022/03/31 08:24:16;;;;;;;16.93;4.00;;;16.60;99.90;;;;;;5031562;28;20408;-82
2022/03/31 08:26:45;;;;;;;18.92;3.60;;;16.60;99.90;;;;;;5030660;28;20436;-89
2022/03/31 08:29:13;;;;;;;18.17;3.83;;;16.60;99.90;;;;;;5030188;28;20937;-86
2022/03/31 08:31:40;;;;;;;15.73;3.38;;;16.60;99.90;;;;;;5030437;28;20378;-82
2022/03/31 08:34:07;;;;;;;17.83;3.53;;;16.50;99.90;;;;;;5030189;28;20385;-87
2022/03/31 08:36:34;;;;;;;16.90;3.47;;;16.50;99.90;;;;;;5030420;28;20413;-87
2022/03/31 08:39:01;;;;;;;17.65;3.50;;;16.50;99.90;;;;;;5031288;28;20439;-85
2022/03/31 08:41:29;;;;;;;15.65;3.42;;;16.50;99.90;;;;;;5030745;28;20452;-89
2022/03/31 08:43:58;;;;;;;16.10;3.58;;;16.40;99.90;;;;;;5032061;28;20398;-90
2022/03/31 08:46:32;;;;;;;17.10;3.30;;;16.40;99.90;;;;;;5014989;28;20784;-85
2022/03/31 08:48:59;;;;;;;17.02;3.20;;;16.40;99.90;;;;;;5037158;28;20383;-80
2022/03/31 08:51:27;;;;;;;19.48;3.55;;;16.40;99.90;;;;;;5038806;28;20388;-89
2022/03/31 08:53:54;;;;;;;15.60;3.30;;;16.30;99.90;;;;;;5031766;28;20385;-80
2022/03/31 08:56:22;;;;;;;14.98;3.35;;;16.40;99.90;;;;;;5031560;28;20435;-86
2022/03/31 08:58:49;;;;;;;14.43;3.20;;;16.40;99.90;;;;;;5034617;28;20738;-83
2022/03/31 09:01:16;;;;;;;17.40;3.45;;;16.30;99.90;;;;;;5043929;28;20834;-90
2022/03/31 09:03:44;;;;;;;14.15;3.10;;;16.40;99.90;;;;;;5031248;28;20393;-86
2022/03/31 09:06:26;;;;;;;13.07;3.03;;;16.30;99.90;;;;;;5030450;28;20381;-80
2022/03/31 09:08:56;;;;;;;15.10;3.22;;;16.30;99.90;;;;;;5031812;28;20377;-91
2022/03/31 09:11:32;;;;;;;15.35;3.60;;;16.30;99.90;;;;;;5031936;28;20378;-91
2022/03/31 09:14:00;;;;;;;14.80;3.28;;;16.30;99.90;;;;;;5013039;28;20382;-81
2022/03/31 09:16:41;;;;;;;16.23;3.55;;;16.30;99.90;;;;;;5030839;28;20370;-88
2022/03/31 09:19:15;;;;;;;16.58;3.35;;;16.30;99.90;;;;;;5030900;28;20389;-89
2022/03/31 09:21:58;;;;;;;13.23;3.08;;;16.20;99.90;;;;;;5014404;28;20678;-87
2022/03/31 09:24:31;;;;;;;14.57;3.30;;;16.20;99.90;;;;;;5030322;28;20719;-78
2022/03/31 09:27:01;;;;;;;13.88;3.00;;;16.10;99.90;;;;;;5032660;28;20385;-83
2022/03/31 09:29:31;;;;;;;18.70;3.28;;;16.10;99.90;;;;;;5032285;28;20381;-78
2022/03/31 09:32:12;;;;;;;18.25;3.03;;;16.00;99.90;;;;;;5032564;28;20365;-90
2022/03/31 09:34:42;;;;;;;15.43;2.93;;;15.90;99.90;;;;;;5036509;28;20817;-83
2022/03/31 09:37:10;;;;;;;12.37;2.93;;;15.90;99.90;;;;;;5042610;28;20397;-81
2022/03/31 09:39:38;;;;;;;12.90;3.03;;;15.80;99.90;;;;;;5042503;28;20920;-77
2022/03/31 09:42:13;;;;;;;11.30;2.80;;;15.90;99.90;;;;;;5044586;28;20394;-84
2022/03/31 09:44:42;;;;;;;13.40;3.30;;;15.90;99.90;;;;;;5045903;28;20373;-87
2022/03/31 09:47:10;;;;;;;12.90;2.90;;;15.90;99.90;;;;;;5047942;28;20505;-87
2022/03/31 09:49:38;;;;;;;14.75;3.05;;;16.00;99.90;;;;;;5044896;28;20380;-83
2022/03/31 09:52:08;;;;;;;13.75;3.10;;;15.90;99.90;;;;;;5046006;28;20413;-80
2022/03/31 09:54:35;;;;;;;13.70;2.65;;;15.90;99.90;;;;;;5046998;28;20428;-86
2022/03/31 09:57:10;;;;;;;14.30;2.90;;;15.90;99.90;;;;;;5032735;28;20385;-81
2022/03/31 09:59:39;;;;;;;14.27;2.83;;;15.90;99.90;;;;;;5032067;28;20393;-87
2022/03/31 10:02:07;;;;;;;14.50;3.15;;;16.10;99.90;;;;;;5048604;28;20373;-87
2022/03/31 10:04:35;;;;;;;14.52;2.60;;;16.10;99.90;;;;;;5033172;28;20857;-80
2022/03/31 10:07:03;;;;;;;16.27;3.00;;;16.00;99.90;;;;;;5033005;28;20807;-82
2022/03/31 10:09:32;;;;;;;11.30;2.90;;;16.10;99.90;;;;;;5033141;28;20373;-90
2022/03/31 10:12:31;;;;;;;11.45;2.85;;;16.10;99.90;;;;;;5033142;28;20432;-90
2022/03/31 10:15:06;;;;;;;11.80;2.42;;;16.10;99.90;;;;;;5029878;28;20386;-86
2022/03/31 10:17:33;;;;;;;13.07;2.70;;;16.10;99.90;;;;;;5033096;28;20425;-82
2022/03/31 10:20:17;;;;;;;12.32;2.53;;;18.40;99.90;;;;;;5033533;28;20416;-89
2022/03/31 10:25:47;;;;;;;14.35;3.33;;;16.20;99.90;;;;;;5035195;28;20433;-86
2022/03/31 10:28:21;;;;;;;12.02;2.80;;;16.20;99.90;;;;;;5034100;28;20381;-87
2022/03/31 10:31:01;;;;;;;11.60;2.70;;;16.30;99.90;;;;;;5050876;28;20373;-87
2022/03/31 10:33:44;;;;;;;12.98;2.75;;;16.30;99.90;;;;;;5034802;28;20365;-80
2022/03/31 10:36:14;;;;;;;14.93;3.03;;;16.30;99.90;;;;;;5033259;28;20369;-90
2022/03/31 10:38:53;;;;;;;13.13;2.67;;;16.30;99.90;;;;;;5033649;28;20397;-83
2022/03/31 10:41:32;;;;;;;12.30;2.90;;;16.20;99.90;;;;;;5035190;28;20376;-88
2022/03/31 10:44:06;;;;;;;12.43;2.78;;;16.10;99.90;;;;;;5033491;28;20405;-82
2022/03/31 10:46:33;;;;;;;15.75;2.85;;;16.00;99.90;;;;;;5035456;28;20378;-89
2022/03/31 10:49:02;;;;;;;14.10;2.95;;;16.00;99.90;;;;;;5037048;28;20382;-90
2022/03/31 10:51:38;;;;;;;11.60;2.70;;;16.00;99.90;;;;;;5040492;28;20860;-90
2022/03/31 10:54:06;;;;;;;12.60;2.58;;;16.00;99.90;;;;;;5052117;28;20401;-87
2022/03/31 10:56:38;;;;;;;14.80;2.95;;;15.90;99.90;;;;;;5043791;28;20369;-91
2022/03/31 10:59:10;;;;;;;11.73;2.67;;;15.80;99.90;;;;;;5036761;28;20385;-89
2022/03/31 11:01:40;;;;;;;11.73;2.73;;;15.70;99.90;;;;;;5034133;28;20773;-90
2022/03/31 11:04:10;;;;;;;10.13;2.77;;;15.60;99.90;;;;;;5032578;28;20447;-88
2022/03/31 11:06:52;;;;;;;15.35;2.80;;;15.60;99.90;;;;;;5033018;28;20390;-86
2022/03/31 11:09:27;;;;;;;14.63;2.92;;;15.60;99.90;;;;;;5032719;28;20382;-89
2022/03/31 11:11:56;;;;;;;9.73;2.40;;;15.60;99.90;;;;;;5032872;28;20390;-82
2022/03/31 11:14:24;;;;;;;12.68;2.50;;;15.60;99.90;;;;;;5032668;28;20390;-84
2022/03/31 11:16:52;;;;;;;10.90;2.60;;;15.50;99.90;;;;;;5032067;28;20389;-89
2022/03/31 11:19:20;;;;;;;10.53;2.33;;;15.50;99.90;;;;;;5033892;28;20516;-89
2022/03/31 11:21:47;;;;;;;11.30;2.53;;;15.40;99.90;;;;;;5034048;28;20423;-86
2022/03/31 11:24:15;;;;;;;11.55;2.42;;;15.40;99.90;;;;;;5033011;28;20416;-85
2022/03/31 11:26:46;;;;;;;11.77;2.50;;;15.40;99.90;;;;;;5015115;28;20755;-83
2022/03/31 11:29:15;;;;;;;11.60;2.30;;;15.40;99.90;;;;;;5031919;28;20416;-86
2022/03/31 11:31:50;;;;;;;13.55;2.40;;;15.40;99.90;;;;;;5033331;28;20374;-88
2022/03/31 11:34:19;;;;;;;11.00;2.30;;;15.30;99.90;;;;;;5033733;28;20378;-88
2022/03/31 11:36:46;;;;;;;11.13;2.30;;;15.30;99.90;;;;;;5031914;28;20421;-83
2022/03/31 11:39:13;;;;;;;13.35;2.50;;;15.30;99.90;;;;;;5032514;28;20476;-86
2022/03/31 11:41:42;;;;;;;9.88;2.15;;;15.30;99.90;;;;;;5032138;28;20377;-88
2022/03/31 11:44:09;;;;;;;11.85;2.17;;;15.30;99.90;;;;;;5031936;28;20402;-82
2022/03/31 11:46:47;;;;;;;8.80;2.15;;;15.30;99.90;;;;;;5032590;28;20373;-78
2022/03/31 11:49:20;;;;;;;9.65;1.90;;;15.30;99.90;;;;;;5033394;28;20461;-84
2022/03/31 11:51:55;;;;;;;11.68;2.17;;;16.90;99.90;;;;;;5031332;28;20370;-85
2022/03/31 11:54:23;;;;;;;10.63;2.22;;;15.20;99.90;;;;;;5031530;28;20846;-87
2022/03/31 11:57:04;;;;;;;12.13;2.10;;;15.30;99.90;;;;;;5031578;28;20487;-86
2022/03/31 11:59:31;;;;;;;10.70;2.17;;;15.30;99.90;;;;;;5034740;28;20414;-87
2022/03/31 12:01:58;;;;;;;7.45;1.90;;;15.30;99.90;;;;;;5031782;28;20405;-80
2022/03/31 12:04:29;;;;;;;9.50;1.70;;;15.30;99.90;;;;;;5031331;28;20424;-79
2022/03/31 12:06:59;;;;;;;10.87;2.00;;;15.30;99.90;;;;;;5031645;28;20373;-78
2022/03/31 12:09:27;;;;;;;7.25;1.70;;;15.30;99.90;;;;;;5032907;28;20381;-79
2022/03/31 12:12:01;;;;;;;4.28;1.30;;;15.30;99.90;;;;;;5038299;28;20873;-83
2022/03/31 12:14:30;;;;;;;8.90;1.80;;;15.30;99.90;;;;;;5035483;28;20381;-87
2022/03/31 12:16:59;;;;;;;6.57;1.63;;;15.30;99.90;;;;;;5031532;28;20451;-82
2022/03/31 12:19:41;;;;;;;7.47;1.60;;;15.30;99.90;;;;;;5030989;28;20381;-81
2022/03/31 12:22:09;;;;;;;6.00;1.60;;;15.30;99.90;;;;;;5029707;28;20393;-85
2022/03/31 12:24:56;;;;;;;5.88;1.40;;;15.40;99.90;;;;;;5033514;28;20381;-86
2022/03/31 12:27:24;;;;;;;5.28;1.40;;;15.40;99.90;;;;;;5032581;28;20424;-85
2022/03/31 12:30:06;;;;;;;7.05;1.50;;;15.40;99.90;;;;;;5032249;28;20767;-79
2022/03/31 12:32:44;;;;;;;6.32;1.60;;;15.40;99.90;;;;;;5031857;28;20366;-81
2022/03/31 12:35:12;;;;;;;5.72;1.50;;;15.40;99.90;;;;;;5031265;28;20369;-79
2022/03/31 12:37:48;;;;;;;6.32;1.58;;;15.50;99.90;;;;;;5031680;28;20397;-79
2022/03/31 12:40:17;;;;;;;5.00;1.40;;;15.40;99.90;;;;;;5030622;28;20382;-76
2022/03/31 12:42:55;;;;;;;6.00;1.67;;;15.40;99.90;;;;;;5030895;28;20370;-82
2022/03/31 12:45:23;;;;;;;6.60;1.48;;;15.50;99.90;;;;;;5034376;28;20395;-86
2022/03/31 12:47:49;;;;;;;5.07;1.23;;;15.40;99.90;;;;;;5033999;28;20370;-79
2022/03/31 12:50:23;;;;;;;5.30;1.20;;;15.50;99.90;;;;;;5038632;28;20377;-79
2022/03/31 12:53:07;;;;;;;5.85;1.23;;;15.40;99.90;;;;;;5031732;28;20381;-85